Time;durP1;ratioP1;P1;durP2;ratioP2;P2;SDS_P1;SDS_P2;PMS_P1;PMS_P2;Temp;Humidity;BMP_temperature;BMP_pressure;BME280_temperature;BME280_humidity;BME280_pressure;Samples;Min_cycle;Max_cycle;Signal;HPM_P1;HPM_P2
2023/02/26 00:01:29;;;;;;;6.30;5.00;;;;;;;2.02;82.14;97735.36;106802;1262;61354;-40
2023/02/26 00:04:01;;;;;;;6.70;4.80;;;;;;;2.05;81.85;97746.90;106843;1267;74346;-40
2023/02/26 00:06:37;;;;;;;7.30;4.90;;;;;;;2.12;81.88;97742.25;106902;1263;69878;-40
2023/02/26 00:09:05;;;;;;;6.70;5.00;;;;;;;2.13;81.65;97745.64;106190;1266;1002440;-40
2023/02/26 00:11:35;;;;;;;7.00;5.00;;;;;;;2.09;81.65;97737.98;106865;1264;60865;-40
2023/02/26 00:14:09;;;;;;;6.70;5.00;;;;;;;2.06;81.34;97744.19;106851;1263;61517;-40
2023/02/26 00:16:39;;;;;;;6.20;4.70;;;;;;;2.07;81.13;97751.69;106838;1264;74228;-40
2023/02/26 00:19:09;;;;;;;6.30;5.00;;;;;;;2.11;80.84;97755.23;106894;1263;68518;-40
2023/02/26 00:21:38;;;;;;;7.40;5.20;;;;;;;2.10;80.65;97750.53;106884;1266;73928;-40
2023/02/26 00:24:07;;;;;;;4.40;3.70;;;;;;;2.04;80.61;97763.36;106915;1267;60641;-40
2023/02/26 00:26:37;;;;;;;7.60;5.50;;;;;;;1.98;80.60;97760.38;106880;1264;60682;-40
2023/02/26 00:29:06;;;;;;;6.90;5.00;;;;;;;1.91;80.81;97755.84;106849;1264;74237;-40
2023/02/26 00:31:44;;;;;;;7.30;4.40;;;;;;;1.92;80.82;97752.59;106121;1264;1003714;-40
2023/02/26 00:34:13;;;;;;;7.50;5.30;;;;;;;1.95;80.53;97740.05;106918;1263;72854;-40
2023/02/26 00:37:05;;;;;;;6.80;4.90;;;;;;;1.93;80.83;97743.67;106847;1262;59879;-40
2023/02/26 00:39:45;;;;;;;6.30;5.00;;;;;;;1.88;80.70;97758.50;106874;1263;61232;-40
2023/02/26 00:42:14;;;;;;;7.80;4.70;;;;;;;1.81;80.82;97752.57;106845;1266;74236;-40
2023/02/26 00:44:43;;;;;;;6.00;4.50;;;;;;;1.81;80.78;97760.14;106885;1267;69489;-40
2023/02/26 00:47:39;;;;;;;4.30;3.30;;;;;;;1.83;80.62;97774.55;106894;1264;73462;-41
2023/02/26 00:50:24;;;;;;;7.10;4.50;;;;;;;1.81;80.66;97779.32;106856;1267;60532;-41
2023/02/26 00:52:56;;;;;;;7.00;4.90;;;;;;;1.76;80.97;97785.02;106782;1266;60999;-41
2023/02/26 00:55:24;;;;;;;10.10;4.90;;;;;;;1.70;81.05;97793.63;106767;1266;74016;-41
2023/02/26 00:57:56;;;;;;;6.40;4.40;;;;;;;1.72;81.00;97797.22;106891;1263;69163;-40
2023/02/26 01:00:25;;;;;;;7.00;4.80;;;;;;;1.73;80.99;97799.54;107068;1257;73894;-40
2023/02/26 01:02:54;;;;;;;6.60;5.00;;;;;;;1.69;81.07;97792.80;107077;1261;60814;-40
2023/02/26 01:05:23;;;;;;;4.60;4.00;;;;;;;1.67;81.23;97800.81;106458;1257;1003153;-40
2023/02/26 01:08:25;;;;;;;6.60;4.80;;;;;;;1.65;81.17;97803.80;107134;1258;74512;-40
2023/02/26 01:10:54;;;;;;;5.20;4.30;;;;;;;1.69;80.97;97800.42;107197;1258;69933;-40
2023/02/26 01:13:23;;;;;;;7.40;4.20;;;;;;;1.70;80.93;97803.94;107265;1257;72374;-40
2023/02/26 01:16:01;;;;;;;6.30;4.80;;;;;;;1.70;80.70;97807.23;107137;1257;60610;-40
2023/02/26 01:18:42;;;;;;;5.80;4.60;;;;;;;1.67;80.48;97814.77;107224;1257;61582;-40
2023/02/26 01:21:15;;;;;;;6.60;4.10;;;;;;;1.65;80.36;97832.65;107139;1257;72316;-40
2023/02/26 01:23:46;;;;;;;5.40;3.60;;;;;;;1.68;80.61;97837.95;107173;1257;69954;-40
2023/02/26 01:26:19;;;;;;;5.40;4.40;;;;;;;1.71;80.47;97838.34;107227;1257;73927;-40
2023/02/26 01:28:48;;;;;;;6.40;4.70;;;;;;;1.72;80.38;97837.16;107264;1257;59627;-40
2023/02/26 01:31:35;;;;;;;5.90;4.80;;;;;;;1.70;80.11;97830.52;107350;1257;59405;-40
2023/02/26 01:34:42;;;;;;;5.70;3.70;;;;;;;1.64;80.26;97835.63;107247;1257;71980;-40
2023/02/26 01:37:25;;;;;;;6.30;4.00;;;;;;;1.65;80.13;97843.05;107276;1260;68330;-40
2023/02/26 01:40:18;;;;;;;6.40;4.60;;;;;;;1.65;79.95;97848.02;107257;1257;73739;-40
2023/02/26 01:42:50;;;;;;;6.40;4.70;;;;;;;1.62;80.28;97854.00;107194;1257;60786;-41
2023/02/26 01:45:29;;;;;;;7.00;5.40;;;;;;;1.57;80.27;97854.86;107245;1257;61355;-40
2023/02/26 01:48:05;;;;;;;6.70;4.90;;;;;;;1.52;80.38;97864.02;107221;1257;73049;-40
2023/02/26 01:50:34;;;;;;;6.10;4.50;;;;;;;1.52;80.50;97876.09;107284;1257;68289;-40
2023/02/26 01:53:24;;;;;;;6.00;3.90;;;;;;;1.59;80.45;97885.75;107264;1257;72638;-40
2023/02/26 01:56:05;;;;;;;5.40;4.00;;;;;;;1.62;80.26;97896.30;107285;1257;60588;-40
2023/02/26 01:58:34;;;;;;;6.70;4.20;;;;;;;1.57;80.03;97893.25;107232;1257;59719;-40
2023/02/26 02:01:03;;;;;;;5.00;3.40;;;;;;;1.53;80.30;97899.45;107242;1257;73912;-40
2023/02/26 02:03:33;;;;;;;4.90;4.00;;;;;;;1.54;80.15;97903.39;107273;1260;69922;-40
2023/02/26 02:06:07;;;;;;;6.10;4.50;;;;;;;1.59;80.18;97897.96;107179;1257;73911;-40
2023/02/26 02:08:38;;;;;;;5.70;4.20;;;;;;;1.61;80.03;97897.41;107326;1257;59659;-40
2023/02/26 02:11:08;;;;;;;4.50;3.40;;;;;;;1.60;80.13;97899.81;107286;1260;59597;-40
2023/02/26 02:13:42;;;;;;;5.60;4.40;;;;;;;1.58;80.04;97902.42;107208;1257;74102;-40
2023/02/26 02:16:21;;;;;;;5.20;4.10;;;;;;;1.55;80.01;97917.84;107207;1257;68463;-42
2023/02/26 02:18:59;;;;;;;4.70;3.80;;;;;;;1.55;79.98;97914.33;106377;1256;1003055;-42
2023/02/26 02:22:07;;;;;;;5.90;4.20;;;;;;;1.61;79.54;97908.72;107124;1257;60487;-41
2023/02/26 02:25:25;;;;;;;6.70;4.20;;;;;;;1.59;79.71;97906.52;106428;1257;1003004;-41
2023/02/26 02:28:32;;;;;;;6.20;4.20;;;;;;;1.55;79.92;97914.77;106804;1256;74309;-41
2023/02/26 02:31:34;;;;;;;4.80;3.80;;;;;;;1.52;79.80;97920.00;107264;1257;69895;-41
2023/02/26 02:34:10;;;;;;;5.20;3.50;;;;;;;1.53;79.84;97932.19;107078;1257;72915;-41
2023/02/26 02:36:46;;;;;;;6.20;4.00;;;;;;;1.53;79.75;97941.89;107136;1257;60471;-41
2023/02/26 02:39:20;;;;;;;6.30;3.80;;;;;;;1.51;79.91;97943.49;107032;1257;61530;-41
2023/02/26 02:41:56;;;;;;;4.50;3.90;;;;;;;1.50;80.03;97944.38;107142;1261;72028;-41
2023/02/26 02:44:25;;;;;;;5.20;3.80;;;;;;;1.50;80.11;97949.65;107203;1257;69990;-41
2023/02/26 02:46:55;;;;;;;;;;;;;;;1.51;80.15;97951.14;107052;1257;74778;-41
2023/02/26 02:49:40;;;;;;;4.30;3.10;;;;;;;1.54;80.11;97952.84;107251;1257;59919;-41
2023/02/26 02:52:19;;;;;;;6.30;4.20;;;;;;;1.60;79.92;97952.39;107096;1258;60836;-41
2023/02/26 02:55:12;;;;;;;4.60;3.60;;;;;;;1.63;80.20;97954.01;107206;1257;73770;-41
2023/02/26 02:58:11;;;;;;;5.60;3.80;;;;;;;1.66;79.85;97960.38;107214;1257;68920;-41
2023/02/26 03:00:43;;;;;;;5.50;4.00;;;;;;;1.64;79.69;97962.75;107218;1257;73584;-40
2023/02/26 03:03:16;;;;;;;4.40;3.90;;;;;;;1.60;79.90;97967.59;107212;1258;62379;-41
2023/02/26 03:05:45;;;;;;;4.30;3.60;;;;;;;1.64;79.68;97972.30;107214;1257;61409;-40
2023/02/26 03:08:16;;;;;;;6.10;3.80;;;;;;;1.73;79.45;97975.25;107195;1257;73214;-40
2023/02/26 03:10:49;;;;;;;6.50;4.00;;;;;;;1.78;79.20;97981.06;107246;1257;69631;-41
2023/02/26 03:13:20;;;;;;;5.20;3.80;;;;;;;1.77;79.27;97978.34;107125;1263;73591;-41
2023/02/26 03:16:07;;;;;;;5.90;4.30;;;;;;;1.76;79.33;97976.79;107228;1258;60581;-41
2023/02/26 03:18:51;;;;;;;7.20;4.10;;;;;;;1.73;79.00;97977.48;107219;1257;60472;-41
2023/02/26 03:21:49;;;;;;;5.00;3.80;;;;;;;1.75;78.79;97983.33;107123;1257;74244;-41
2023/02/26 03:24:39;;;;;;;6.10;4.40;;;;;;;1.78;78.80;97986.91;107062;1257;69736;-41
2023/02/26 03:27:22;;;;;;;6.00;4.50;;;;;;;1.74;78.99;97990.55;106968;1257;73859;-40
2023/02/26 03:29:56;;;;;;;5.00;4.30;;;;;;;1.72;78.99;97989.73;107108;1258;60832;-40
2023/02/26 03:32:42;;;;;;;5.00;4.10;;;;;;;1.67;78.96;97991.48;107090;1259;61293;-40
2023/02/26 03:35:17;;;;;;;6.80;4.10;;;;;;;1.64;79.11;97986.50;107163;1257;73901;-40
2023/02/26 03:37:50;;;;;;;5.70;3.90;;;;;;;1.65;78.93;97992.48;107238;1257;70090;-40
2023/02/26 03:40:34;;;;;;;4.40;3.90;;;;;;;1.64;79.02;97990.84;107152;1258;73871;-41
2023/02/26 03:43:18;;;;;;;7.70;3.90;;;;;;;1.60;79.36;98000.61;107122;1258;60448;-40
2023/02/26 03:45:53;;;;;;;6.50;4.40;;;;;;;1.54;79.48;98006.77;107162;1257;61241;-40
2023/02/26 03:48:22;;;;;;;;;;;;;;;1.47;79.50;98008.16;107271;1257;73860;-40
2023/02/26 03:50:52;;;;;;;3.30;2.70;;;;;;;1.48;79.68;98009.95;107123;1259;69749;-40
2023/02/26 03:54:04;;;;;;;5.10;3.80;;;;;;;1.54;79.55;98010.59;107142;1258;72702;-41
2023/02/26 03:56:43;;;;;;;5.80;3.90;;;;;;;1.53;79.35;98024.75;107271;1257;60493;-40
2023/02/26 03:59:50;;;;;;;5.40;4.40;;;;;;;1.50;79.68;98029.84;104258;1257;1003671;-40
2023/02/26 04:02:50;;;;;;;7.80;4.40;;;;;;;1.47;79.79;98038.22;107234;1262;73702;-40
2023/02/26 04:05:22;;;;;;;6.30;3.50;;;;;;;1.51;79.73;98050.00;107219;1262;68310;-40
2023/02/26 04:07:50;;;;;;;4.80;3.70;;;;;;;1.57;79.67;98056.85;106992;1257;73945;-41
2023/02/26 04:10:28;;;;;;;6.40;4.20;;;;;;;1.58;79.68;98058.65;107059;1257;60358;-40
2023/02/26 04:12:59;;;;;;;6.30;4.30;;;;;;;1.60;79.59;98058.63;107186;1262;61457;-40
2023/02/26 04:15:28;;;;;;;5.90;4.10;;;;;;;1.61;79.79;98065.00;107242;1257;72975;-40
2023/02/26 04:17:57;;;;;;;4.90;4.10;;;;;;;1.58;79.63;98068.02;107185;1261;70217;-40
2023/02/26 04:20:25;;;;;;;4.90;3.90;;;;;;;1.59;79.67;98068.13;107149;1257;73919;-40
2023/02/26 04:22:54;;;;;;;5.50;4.40;;;;;;;1.64;79.38;98064.33;107296;1257;59783;-40
2023/02/26 04:25:23;;;;;;;6.40;4.40;;;;;;;1.64;79.35;98067.10;107264;1258;62011;-40
2023/02/26 04:27:52;;;;;;;5.80;4.40;;;;;;;1.60;79.51;98072.14;107227;1257;74754;-40
2023/02/26 04:30:21;;;;;;;6.40;4.40;;;;;;;1.57;79.63;98074.48;107112;1260;68791;-41
2023/02/26 04:32:49;;;;;;;6.10;4.20;;;;;;;1.53;79.69;98079.76;107128;1261;73562;-40
2023/02/26 04:35:18;;;;;;;5.70;4.60;;;;;;;1.52;79.77;98086.90;107140;1257;61749;-40
2023/02/26 04:37:47;;;;;;;5.90;4.50;;;;;;;1.52;79.63;98095.98;107169;1257;60590;-40
2023/02/26 04:40:16;;;;;;;5.60;4.40;;;;;;;1.48;79.80;98097.00;107150;1261;74747;-40
2023/02/26 04:42:45;;;;;;;6.80;4.60;;;;;;;1.45;80.09;98100.47;107179;1259;69826;-41
2023/02/26 04:45:18;;;;;;;7.10;4.60;;;;;;;1.40;80.36;98095.73;107101;1257;73577;-40
2023/02/26 04:47:47;;;;;;;5.50;4.40;;;;;;;1.42;80.19;98090.15;107140;1257;62437;-40
2023/02/26 04:50:16;;;;;;;5.60;4.40;;;;;;;1.44;80.29;98089.83;107114;1257;60285;-42
2023/02/26 04:52:47;;;;;;;5.40;4.40;;;;;;;1.42;80.40;98094.55;107220;1257;73159;-42
2023/02/26 04:55:16;;;;;;;7.10;4.70;;;;;;;1.38;80.57;98103.45;107236;1257;69744;-41
2023/02/26 04:57:44;;;;;;;5.10;3.90;;;;;;;1.39;80.48;98109.44;107238;1257;71990;-41
2023/02/26 05:00:14;;;;;;;5.10;3.90;;;;;;;1.43;80.47;98117.66;107194;1257;60501;-41
2023/02/26 05:02:42;;;;;;;4.80;3.40;;;;;;;1.43;80.51;98134.60;106424;1257;1002673;-41
2023/02/26 05:05:11;;;;;;;6.00;4.70;;;;;;;1.41;80.84;98146.33;107125;1263;74686;-42
2023/02/26 05:07:45;;;;;;;7.20;4.90;;;;;;;1.39;80.96;98148.48;107162;1257;69908;-41
2023/02/26 05:10:15;;;;;;;5.40;4.00;;;;;;;1.43;80.82;98149.38;107184;1257;73556;-41
2023/02/26 05:12:45;;;;;;;4.30;3.50;;;;;;;1.42;80.83;98138.30;107242;1261;60991;-42
2023/02/26 05:15:15;;;;;;;7.60;4.50;;;;;;;1.50;80.57;98146.88;107146;1257;61510;-41
2023/02/26 05:17:43;;;;;;;7.20;4.10;;;;;;;1.47;80.64;98153.66;107525;1254;75055;-41
2023/02/26 05:20:14;;;;;;;5.30;4.10;;;;;;;1.46;80.52;98155.59;107474;1254;69384;-41
2023/02/26 05:22:48;;;;;;;7.40;4.40;;;;;;;1.49;80.60;98156.54;107462;1254;73618;-41
2023/02/26 05:25:17;;;;;;;5.80;4.10;;;;;;;1.54;80.51;98164.71;107468;1253;61018;-41
2023/02/26 05:27:46;;;;;;;6.40;4.70;;;;;;;1.57;80.44;98163.98;107419;1254;61575;-41
2023/02/26 05:30:15;;;;;;;8.00;5.30;;;;;;;1.55;80.48;98169.83;107436;1254;75065;-41
2023/02/26 05:32:44;;;;;;;8.00;5.10;;;;;;;1.54;80.46;98171.16;107381;1254;69911;-41
2023/02/26 05:35:13;;;;;;;6.80;4.80;;;;;;;1.56;80.43;98176.70;107348;1254;73622;-41
2023/02/26 05:37:42;;;;;;;7.70;5.10;;;;;;;1.61;80.32;98179.17;107371;1254;60443;-41
2023/02/26 05:40:12;;;;;;;5.80;4.60;;;;;;;1.63;80.03;98179.09;107500;1254;60752;-41
2023/02/26 05:42:40;;;;;;;7.10;4.70;;;;;;;1.64;80.27;98182.63;107512;1254;75055;-41
2023/02/26 05:45:10;;;;;;;;;;;;;;;1.64;80.05;98190.04;107497;1254;68827;-41
2023/02/26 05:47:39;;;;;;;5.30;4.60;;;;;;;1.55;80.29;98182.09;107382;1254;73843;-41
2023/02/26 05:50:09;;;;;;;7.00;4.20;;;;;;;1.65;80.16;98197.41;107378;1254;60787;-41
2023/02/26 05:52:37;;;;;;;7.70;4.60;;;;;;;1.68;80.06;98200.12;107504;1254;61518;-41
2023/02/26 05:55:09;;;;;;;5.90;4.50;;;;;;;1.67;80.27;98202.96;107509;1254;74721;-41
2023/02/26 05:57:39;;;;;;;5.80;4.20;;;;;;;1.65;80.33;98209.17;107463;1256;69928;-41
2023/02/26 06:00:08;;;;;;;5.90;4.20;;;;;;;1.70;80.15;98212.70;107443;1254;73855;-41
2023/02/26 06:02:40;;;;;;;7.40;5.10;;;;;;;1.80;80.15;98219.54;107503;1254;60776;-41
2023/02/26 06:05:09;;;;;;;6.50;4.80;;;;;;;1.85;79.81;98221.84;107532;1254;60349;-42
2023/02/26 06:07:40;;;;;;;6.80;4.60;;;;;;;1.85;79.88;98225.20;107485;1254;74020;-41
2023/02/26 06:10:10;;;;;;;6.50;5.20;;;;;;;1.84;79.89;98234.48;107553;1254;69911;-41
2023/02/26 06:12:39;;;;;;;6.10;4.20;;;;;;;1.84;79.76;98242.72;107492;1254;73676;-41
2023/02/26 06:15:09;;;;;;;6.50;4.50;;;;;;;1.88;79.73;98244.48;107495;1254;62117;-41
2023/02/26 06:17:39;;;;;;;6.90;4.50;;;;;;;1.93;79.54;98248.31;107484;1254;61193;-41
2023/02/26 06:20:09;;;;;;;6.30;5.10;;;;;;;1.94;79.44;98256.21;107512;1254;72890;-41
2023/02/26 06:22:38;;;;;;;7.90;5.40;;;;;;;1.94;79.61;98265.73;107531;1254;68468;-41
2023/02/26 06:25:07;;;;;;;7.00;5.20;;;;;;;1.91;79.83;98269.23;107493;1254;72553;-41
2023/02/26 06:27:35;;;;;;;6.40;4.80;;;;;;;1.94;79.91;98274.70;107505;1254;61735;-41
2023/02/26 06:30:05;;;;;;;7.30;5.50;;;;;;;2.02;79.59;98283.92;107438;1256;61506;-41
2023/02/26 06:32:34;;;;;;;7.50;5.80;;;;;;;2.06;79.51;98290.46;107378;1254;74708;-41
2023/02/26 06:35:05;;;;;;;8.20;5.70;;;;;;;2.07;79.52;98299.89;107441;1254;67816;-41
2023/02/26 06:37:40;;;;;;;7.20;5.70;;;;;;;2.08;79.36;98308.08;107441;1254;73789;-42
2023/02/26 06:40:10;;;;;;;6.60;5.20;;;;;;;2.11;79.11;98312.94;107488;1254;62440;-40
2023/02/26 06:42:39;;;;;;;;;;;;;;;2.16;78.97;98318.55;107558;1254;60317;-40
2023/02/26 06:45:08;;;;;;;8.00;5.00;;;;;;;2.13;79.08;98322.02;107416;1253;74091;-40
2023/02/26 06:47:36;;;;;;;6.30;4.90;;;;;;;2.09;79.23;98326.16;107449;1254;69712;-40
2023/02/26 06:50:05;;;;;;;7.40;5.70;;;;;;;2.11;79.14;98328.45;107474;1254;73920;-40
2023/02/26 06:52:35;;;;;;;7.90;5.50;;;;;;;2.14;79.26;98336.50;107498;1254;60428;-40
2023/02/26 06:55:04;;;;;;;8.30;6.10;;;;;;;2.22;79.05;98338.97;107480;1254;60713;-40
2023/02/26 06:57:32;;;;;;;7.30;5.20;;;;;;;2.30;78.65;98343.23;107499;1254;74750;-40
2023/02/26 07:00:01;;;;;;;8.50;6.10;;;;;;;2.33;78.65;98343.80;107489;1257;70036;-40
2023/02/26 07:02:30;;;;;;;8.80;6.30;;;;;;;2.36;78.55;98348.15;107487;1257;73509;-40
2023/02/26 07:05:04;;;;;;;8.20;6.40;;;;;;;2.37;78.44;98352.64;107507;1254;60524;-40
2023/02/26 07:07:32;;;;;;;6.90;5.10;;;;;;;2.38;78.31;98350.23;107510;1253;61446;-40
2023/02/26 07:10:01;;;;;;;7.20;5.40;;;;;;;2.43;78.10;98356.14;107534;1253;75411;-40
2023/02/26 07:12:29;;;;;;;7.00;5.40;;;;;;;2.50;78.01;98360.73;107487;1254;69765;-40
2023/02/26 07:14:58;;;;;;;8.00;5.70;;;;;;;2.51;78.07;98360.33;107537;1254;72584;-40
2023/02/26 07:17:33;;;;;;;8.90;6.20;;;;;;;2.52;77.98;98358.59;107476;1253;60644;-40
2023/02/26 07:20:05;;;;;;;9.40;6.20;;;;;;;2.52;77.89;98363.66;107502;1254;61191;-40
2023/02/26 07:22:33;;;;;;;7.80;5.60;;;;;;;2.52;78.07;98366.77;107471;1254;75022;-41
2023/02/26 07:25:03;;;;;;;7.20;5.90;;;;;;;2.58;77.79;98369.11;107481;1254;69802;-40
2023/02/26 07:27:32;;;;;;;7.50;5.60;;;;;;;2.68;77.81;98370.20;107522;1254;73804;-40
2023/02/26 07:30:00;;;;;;;8.60;5.90;;;;;;;2.73;77.34;98380.27;107511;1254;60457;-40
2023/02/26 07:32:29;;;;;;;8.20;6.40;;;;;;;2.74;77.10;98378.89;107455;1254;60320;-40
2023/02/26 07:34:58;;;;;;;9.00;6.90;;;;;;;2.72;77.14;98381.67;107436;1253;74982;-41
2023/02/26 07:37:27;;;;;;;8.70;6.60;;;;;;;2.74;77.14;98383.33;107394;1254;69914;-40
2023/02/26 07:39:56;;;;;;;9.70;6.80;;;;;;;2.78;77.05;98388.98;107419;1254;73292;-40
2023/02/26 07:42:24;;;;;;;9.60;6.90;;;;;;;2.83;76.95;98389.23;107376;1254;60618;-40
2023/02/26 07:44:53;;;;;;;10.40;7.60;;;;;;;2.87;77.11;98392.06;107462;1254;61534;-40
2023/02/26 07:47:22;;;;;;;9.70;7.20;;;;;;;2.89;77.05;98396.08;105985;1253;1003523;-41
2023/02/26 07:49:50;;;;;;;12.70;8.60;;;;;;;2.90;77.21;98397.10;107482;1254;69721;-41
2023/02/26 07:52:21;;;;;;;11.20;7.90;;;;;;;2.94;77.18;98409.94;107421;1254;73775;-41
2023/02/26 07:54:50;;;;;;;9.50;7.30;;;;;;;3.02;77.19;98408.91;107537;1254;61912;-41
2023/02/26 07:57:19;;;;;;;11.80;7.50;;;;;;;3.13;76.93;98411.93;107546;1253;60565;-41
2023/02/26 07:59:47;;;;;;;13.20;8.70;;;;;;;3.18;76.89;98412.17;107464;1253;75451;-41
2023/02/26 08:02:16;;;;;;;11.60;8.90;;;;;;;3.24;76.47;98415.27;107508;1254;69895;-41
2023/02/26 08:04:44;;;;;;;12.50;8.20;;;;;;;3.24;75.90;98416.30;107453;1254;73262;-41
2023/02/26 08:07:13;;;;;;;10.60;7.90;;;;;;;3.23;75.88;98421.22;107483;1254;62366;-41
2023/02/26 08:09:43;;;;;;;9.90;6.70;;;;;;;3.28;75.54;98424.98;107410;1253;61167;-41
2023/02/26 08:12:11;;;;;;;9.00;6.20;;;;;;;3.34;75.43;98421.66;107506;1254;74921;-41
2023/02/26 08:14:41;;;;;;;10.10;7.20;;;;;;;3.37;74.90;98421.90;107482;1254;69651;-41
2023/02/26 08:17:10;;;;;;;9.50;7.30;;;;;;;3.39;75.13;98420.73;107538;1253;73886;-41
2023/02/26 08:19:39;;;;;;;9.40;6.20;;;;;;;3.42;75.30;98415.95;107497;1254;62417;-42
2023/02/26 08:22:07;;;;;;;9.40;6.30;;;;;;;3.47;74.75;98409.23;107525;1253;61517;-41
2023/02/26 08:24:36;;;;;;;7.70;6.30;;;;;;;3.55;74.27;98411.98;107496;1254;74033;-41
2023/02/26 08:27:06;;;;;;;8.00;6.10;;;;;;;3.54;73.87;98415.94;106722;1254;1003697;-41
2023/02/26 08:29:38;;;;;;;9.40;6.70;;;;;;;3.52;74.03;98423.45;107452;1254;73817;-41
2023/02/26 08:32:08;;;;;;;9.60;6.50;;;;;;;3.48;74.52;98427.77;107474;1253;61402;-41
2023/02/26 08:34:37;;;;;;;7.90;6.20;;;;;;;3.53;74.54;98428.13;107494;1254;61575;-41
2023/02/26 08:37:08;;;;;;;8.10;6.30;;;;;;;3.60;74.28;98429.59;107507;1254;75061;-41
2023/02/26 08:39:37;;;;;;;8.40;6.60;;;;;;;3.62;74.70;98436.17;107493;1254;69873;-41
2023/02/26 08:42:06;;;;;;;8.50;6.60;;;;;;;3.62;73.91;98433.95;107485;1254;71651;-42
2023/02/26 08:44:37;;;;;;;9.10;6.50;;;;;;;3.62;74.26;98435.55;107518;1254;60640;-42
2023/02/26 08:47:05;;;;;;;8.90;6.50;;;;;;;3.62;74.37;98436.11;107472;1253;61529;-41
2023/02/26 08:49:34;;;;;;;8.70;6.50;;;;;;;3.70;74.21;98434.52;107491;1254;74706;-42
2023/02/26 08:52:03;;;;;;;8.80;7.00;;;;;;;3.78;73.95;98435.20;107524;1253;69974;-41
2023/02/26 08:54:32;;;;;;;6.30;5.00;;;;;;;3.83;74.06;98444.56;107532;1253;74811;-42
2023/02/26 08:57:02;;;;;;;9.70;6.70;;;;;;;3.89;74.25;98446.72;107418;1254;60753;-41
2023/02/26 08:59:30;;;;;;;9.20;6.40;;;;;;;3.95;73.16;98447.20;107556;1254;60400;-39
2023/02/26 09:01:59;;;;;;;8.50;6.40;;;;;;;4.03;72.77;98453.20;107546;1257;75050;-40
2023/02/26 09:04:28;;;;;;;9.60;6.40;;;;;;;4.11;72.27;98458.48;107561;1254;69759;-40
2023/02/26 09:06:58;;;;;;;8.80;5.90;;;;;;;4.15;72.09;98457.83;107482;1254;74242;-40
2023/02/26 09:09:31;;;;;;;9.40;7.00;;;;;;;4.15;71.39;98460.67;107527;1254;59570;-40
2023/02/26 09:12:00;;;;;;;5.50;4.60;;;;;;;4.14;71.51;98466.61;107518;1254;60980;-40
2023/02/26 09:14:28;;;;;;;7.40;5.30;;;;;;;4.17;71.13;98472.70;107525;1254;74990;-40
2023/02/26 09:17:03;;;;;;;8.90;6.10;;;;;;;4.23;70.18;98482.70;107505;1257;69806;-40
2023/02/26 09:19:31;;;;;;;9.10;6.10;;;;;;;4.24;69.99;98488.23;107519;1254;73985;-40
2023/02/26 09:22:00;;;;;;;8.10;6.00;;;;;;;4.24;70.43;98495.75;107547;1254;60797;-40
2023/02/26 09:24:29;;;;;;;7.90;5.20;;;;;;;4.27;70.04;98499.97;107569;1254;60452;-40
2023/02/26 09:26:57;;;;;;;6.60;5.30;;;;;;;4.32;70.02;98503.73;107567;1254;75076;-40
2023/02/26 09:29:26;;;;;;;8.20;6.20;;;;;;;4.42;70.54;98508.45;107548;1254;69926;-40
2023/02/26 09:31:54;;;;;;;7.00;5.70;;;;;;;4.49;70.28;98510.48;107481;1254;73881;-40
2023/02/26 09:34:23;;;;;;;8.50;6.40;;;;;;;4.55;69.71;98513.73;107565;1254;60632;-40
2023/02/26 09:36:51;;;;;;;7.50;6.00;;;;;;;4.58;69.63;98518.11;107568;1254;61524;-40
2023/02/26 09:39:20;;;;;;;8.30;6.10;;;;;;;4.60;69.39;98515.73;107533;1257;74073;-40
2023/02/26 09:41:51;;;;;;;6.90;5.10;;;;;;;4.67;69.38;98519.46;107547;1254;69909;-40
2023/02/26 09:44:23;;;;;;;8.30;5.70;;;;;;;4.75;69.16;98517.40;107533;1254;73521;-41
2023/02/26 09:47:01;;;;;;;7.10;5.50;;;;;;;4.77;68.32;98520.97;107541;1254;61570;-40
2023/02/26 09:49:42;;;;;;;8.10;6.30;;;;;;;4.71;68.31;98526.02;107554;1254;60415;-41
2023/02/26 09:52:20;;;;;;;7.30;6.30;;;;;;;4.63;68.57;98529.63;107512;1254;75032;-41
2023/02/26 09:54:52;;;;;;;6.40;5.40;;;;;;;4.59;69.13;98534.36;107510;1254;69984;-41
2023/02/26 09:57:31;;;;;;;8.10;5.80;;;;;;;4.59;68.80;98533.73;107580;1257;73863;-41
2023/02/26 10:00:00;;;;;;;7.00;5.90;;;;;;;4.60;69.14;98534.15;107528;1254;60303;-41
2023/02/26 10:03:08;;;;;;;9.30;6.60;;;;;;;4.57;68.95;98532.05;107496;1254;61457;-41
2023/02/26 10:05:44;;;;;;;14.40;8.90;;;;;;;4.56;69.09;98528.02;107451;1254;74996;-40
2023/02/26 10:08:17;;;;;;;12.00;8.60;;;;;;;4.55;69.80;98534.61;107512;1257;69868;-41
2023/02/26 10:10:50;;;;;;;10.40;7.20;;;;;;;4.57;70.23;98532.14;107521;1254;73817;-40
2023/02/26 10:13:49;;;;;;;11.70;8.20;;;;;;;4.65;69.90;98530.53;107522;1254;62078;-41
2023/02/26 10:16:31;;;;;;;7.50;5.90;;;;;;;4.74;69.59;98533.80;107435;1254;61226;-41
2023/02/26 10:19:05;;;;;;;8.30;6.20;;;;;;;4.78;69.17;98535.13;107303;1254;74435;-41
2023/02/26 10:22:04;;;;;;;8.40;5.80;;;;;;;4.83;68.21;98530.89;107378;1257;70024;-41
2023/02/26 10:24:42;;;;;;;8.60;5.90;;;;;;;4.86;68.03;98527.29;107215;1257;73570;-41
2023/02/26 10:27:15;;;;;;;8.50;6.70;;;;;;;4.87;68.04;98532.97;107464;1254;60707;-41
2023/02/26 10:29:48;;;;;;;7.80;5.80;;;;;;;4.96;67.52;98533.85;107435;1255;61203;-41
2023/02/26 10:32:33;;;;;;;6.70;5.20;;;;;;;5.05;67.29;98538.00;107489;1254;74965;-41
2023/02/26 10:35:07;;;;;;;7.50;5.50;;;;;;;5.14;67.15;98540.10;107347;1259;68596;-41
2023/02/26 10:37:58;;;;;;;7.10;5.60;;;;;;;5.23;66.75;98543.40;107431;1257;72355;-41
2023/02/26 10:40:41;;;;;;;7.90;5.70;;;;;;;5.30;65.39;98550.44;107412;1255;60884;-40
2023/02/26 10:43:13;;;;;;;7.80;5.30;;;;;;;5.30;65.92;98551.35;107533;1254;61327;-40
2023/02/26 10:45:56;;;;;;;6.80;5.60;;;;;;;5.35;65.96;98553.55;107493;1254;74881;-41
2023/02/26 10:48:47;;;;;;;7.10;5.40;;;;;;;5.41;65.46;98554.55;107513;1254;69500;-41
2023/02/26 10:51:26;;;;;;;8.20;5.60;;;;;;;5.42;65.71;98554.20;107469;1253;73365;-41
2023/02/26 10:54:20;;;;;;;7.30;6.00;;;;;;;5.42;65.96;98554.80;107494;1256;60447;-41
2023/02/26 10:56:48;;;;;;;7.80;6.20;;;;;;;5.42;65.66;98552.13;107469;1254;61343;-41
2023/02/26 10:59:20;;;;;;;7.60;6.00;;;;;;;5.37;66.13;98555.67;107531;1254;74990;-41
2023/02/26 11:01:49;;;;;;;7.70;6.10;;;;;;;5.35;66.49;98554.63;107603;1254;70960;-41
2023/02/26 11:04:22;;;;;;;7.10;5.90;;;;;;;5.41;65.89;98554.10;107574;1257;73714;-41
2023/02/26 11:07:01;;;;;;;6.00;5.10;;;;;;;5.46;64.88;98557.14;107526;1254;60401;-41
2023/02/26 11:09:38;;;;;;;7.20;5.60;;;;;;;5.49;64.65;98560.22;107537;1254;61266;-41
2023/02/26 11:12:13;;;;;;;6.70;5.50;;;;;;;5.49;64.85;98563.38;107533;1254;74803;-41
2023/02/26 11:14:46;;;;;;;7.20;5.50;;;;;;;5.49;64.48;98561.06;107521;1254;70026;-41
2023/02/26 11:17:26;;;;;;;6.80;5.50;;;;;;;5.47;64.03;98564.86;107411;1254;73861;-42
2023/02/26 11:20:01;;;;;;;7.10;5.90;;;;;;;5.48;64.36;98572.71;107575;1254;59266;-39
2023/02/26 11:22:32;;;;;;;7.30;5.50;;;;;;;5.51;63.84;98575.23;107584;1254;60367;-41
2023/02/26 11:25:00;;;;;;;7.10;5.30;;;;;;;5.61;63.63;98579.03;107463;1254;73823;-41
2023/02/26 11:27:34;;;;;;;7.90;5.40;;;;;;;5.69;63.93;98585.23;107405;1254;69952;-42
2023/02/26 11:30:14;;;;;;;6.60;5.30;;;;;;;5.77;63.51;98584.29;107463;1254;73877;-41
2023/02/26 11:32:44;;;;;;;7.00;5.70;;;;;;;5.90;62.81;98585.26;107465;1258;60797;-41
2023/02/26 11:35:14;;;;;;;7.40;5.70;;;;;;;5.99;62.65;98592.85;107533;1254;61276;-41
2023/02/26 11:37:46;;;;;;;7.00;5.90;;;;;;;6.04;62.73;98600.36;107514;1254;72694;-41
2023/02/26 11:40:17;;;;;;;8.20;5.40;;;;;;;6.08;62.33;98603.92;107483;1254;68955;-41
2023/02/26 11:42:50;;;;;;;7.60;5.90;;;;;;;6.13;62.26;98600.41;107592;1254;73893;-41
2023/02/26 11:45:19;;;;;;;15.30;9.50;;;;;;;6.19;61.97;98600.94;107264;1254;182256;-41
2023/02/26 11:48:59;;;;;;;5.70;5.00;;;;;;;6.30;61.28;98600.13;104420;1289;601115;-39
2023/02/26 11:51:28;;;;;;;6.80;5.20;;;;;;;6.28;61.21;98600.63;106840;1267;59320;-41
2023/02/26 11:54:00;;;;;;;6.30;5.20;;;;;;;6.27;60.72;98610.59;106830;1266;60329;-40
2023/02/26 11:56:38;;;;;;;6.20;4.90;;;;;;;6.25;60.64;98617.46;106772;1269;72066;-41
2023/02/26 11:59:15;;;;;;;7.80;5.40;;;;;;;6.29;61.06;98620.95;106771;1267;68784;-41
2023/02/26 12:01:44;;;;;;;10.70;8.60;;;;;;;6.39;61.19;98619.65;106649;1267;200906;-41
2023/02/26 12:04:13;;;;;;;7.10;6.10;;;;;;;6.47;60.42;98615.83;106857;1263;60843;-41
2023/02/26 12:06:42;;;;;;;11.80;9.50;;;;;;;6.52;60.59;98622.73;106901;1263;60228;-40